To NAV CANADA Home Page Login to a new session Search on AWWS site Feedback and Comments Disclaimer Vers la page française équivalente Tips FAQ What's new on the site To the Forecasts and Observations / NOTAM section To "File a Flight Plan" website Publications and other links Update of the User's profile FIC Telephone Numbers My Weather Data Folder Route Weather Data Regional Weather Data Local Weather Data To the Forecasts and Observations / NOTAM section
Request Generated 06/30/2015 at 03:27:17 UTC . Weather information available at that time is displayed.

METAR/TAF

OTTAWA/MACDONALD-CARTIER INTL/ON    

METAR CYOW 300300Z 19006KT 15SM FEW065 FEW250 16/15 A2989 RMK SC1CI2
SC TR SLP123 DENSITY ALT 600FT=
METAR CYOW 300200Z 21005KT 15SM FEW065 FEW250 17/13 A2988 RMK SC1CI2
SC TR SLP119 DENSITY ALT 700FT=
METAR CYOW 300100Z 20005KT 15SM FEW050TCU FEW065 FEW250 18/13 A2986
RMK TCU1SC1CI2 TCU TR SC TR TCU NW SLP112 DENSITY ALT 900FT=

TAF CYOW 300238Z 3003/3024 22005KT P6SM FEW060
FM301700 19010KT P6SM SCT040 BKN120
FM302100 14008KT P6SM -SHRA SCT015 OVC030
RMK NXT FCST BY 300600Z=
Your time UTC time
Weather data provided by Environment Canada and NAV CANADA